sensor_id;sensor_type;location;lat;lon;timestamp;pressure;altitude;pressure_sealevel;temperature;humidity
70254;BME280;57649;42.968;1.608;2023-03-14T00:01:45;96885.63;;;8.54;100.00
70254;BME280;57649;42.968;1.608;2023-03-14T00:04:11;96877.28;;;8.49;100.00
70254;BME280;57649;42.968;1.608;2023-03-14T00:06:38;96875.44;;;8.50;100.00
70254;BME280;57649;42.968;1.608;2023-03-14T00:09:04;96876.31;;;8.50;100.00
70254;BME280;57649;42.968;1.608;2023-03-14T00:11:29;96880.28;;;8.38;100.00
70254;BME280;57649;42.968;1.608;2023-03-14T00:13:55;96879.97;;;8.49;100.00
70254;BME280;57649;42.968;1.608;2023-03-14T00:16:21;96880.28;;;8.54;100.00
70254;BME280;57649;42.968;1.608;2023-03-14T00:18:46;96875.59;;;8.64;100.00
70254;BME280;57649;42.968;1.608;2023-03-14T00:21:12;96880.13;;;8.72;100.00
70254;BME280;57649;42.968;1.608;2023-03-14T00:23:39;96873.91;;;8.80;100.00
70254;BME280;57649;42.968;1.608;2023-03-14T00:26:08;96878.59;;;8.78;100.00
70254;BME280;57649;42.968;1.608;2023-03-14T00:28:34;96885.06;;;8.92;100.00
70254;BME280;57649;42.968;1.608;2023-03-14T00:31:03;96888.25;;;8.87;100.00
70254;BME280;57649;42.968;1.608;2023-03-14T00:33:29;96884.91;;;8.93;100.00
70254;BME280;57649;42.968;1.608;2023-03-14T00:36:05;96881.22;;;8.86;100.00
70254;BME280;57649;42.968;1.608;2023-03-14T00:38:31;96882.56;;;8.98;100.00
70254;BME280;57649;42.968;1.608;2023-03-14T00:40:57;96876.56;;;8.96;100.00
70254;BME280;57649;42.968;1.608;2023-03-14T00:43:23;96888.56;;;9.00;100.00
70254;BME280;57649;42.968;1.608;2023-03-14T00:45:49;96880.22;;;8.95;100.00
70254;BME280;57649;42.968;1.608;2023-03-14T00:48:16;96898.91;;;9.03;100.00
70254;BME280;57649;42.968;1.608;2023-03-14T00:50:41;96889.69;;;9.14;100.00
70254;BME280;57649;42.968;1.608;2023-03-14T00:53:08;96875.69;;;9.04;100.00
70254;BME280;57649;42.968;1.608;2023-03-14T00:55:37;96868.50;;;9.04;100.00
70254;BME280;57649;42.968;1.608;2023-03-14T00:58:02;96880.56;;;8.92;100.00
70254;BME280;57649;42.968;1.608;2023-03-14T01:00:28;96879.50;;;9.10;100.00
70254;BME280;57649;42.968;1.608;2023-03-14T01:02:53;96871.53;;;9.01;100.00
70254;BME280;57649;42.968;1.608;2023-03-14T01:05:18;96876.38;;;8.98;100.00
70254;BME280;57649;42.968;1.608;2023-03-14T01:07:44;96873.19;;;9.02;100.00
70254;BME280;57649;42.968;1.608;2023-03-14T01:10:10;96874.34;;;9.08;100.00
70254;BME280;57649;42.968;1.608;2023-03-14T01:12:36;96880.69;;;9.07;100.00
70254;BME280;57649;42.968;1.608;2023-03-14T01:15:01;96886.69;;;9.09;100.00
70254;BME280;57649;42.968;1.608;2023-03-14T01:17:27;96870.84;;;9.08;98.93
70254;BME280;57649;42.968;1.608;2023-03-14T01:19:52;96878.84;;;9.16;100.00
70254;BME280;57649;42.968;1.608;2023-03-14T01:22:18;96877.94;;;9.32;100.00
70254;BME280;57649;42.968;1.608;2023-03-14T01:24:43;96875.97;;;9.25;100.00
70254;BME280;57649;42.968;1.608;2023-03-14T01:27:08;96877.13;;;9.23;99.11
70254;BME280;57649;42.968;1.608;2023-03-14T01:29:34;96881.44;;;9.32;100.00
70254;BME280;57649;42.968;1.608;2023-03-14T01:31:59;96881.91;;;9.36;100.00
70254;BME280;57649;42.968;1.608;2023-03-14T01:34:24;96873.72;;;9.37;96.83
70254;BME280;57649;42.968;1.608;2023-03-14T01:36:50;96888.38;;;9.50;98.39
70254;BME280;57649;42.968;1.608;2023-03-14T01:39:15;96882.56;;;9.46;98.58
70254;BME280;57649;42.968;1.608;2023-03-14T01:41:40;96878.03;;;9.78;87.24
70254;BME280;57649;42.968;1.608;2023-03-14T01:44:10;96878.16;;;9.93;87.78
70254;BME280;57649;42.968;1.608;2023-03-14T01:46:38;96876.41;;;10.00;87.08
70254;BME280;57649;42.968;1.608;2023-03-14T01:49:24;96869.41;;;9.99;88.34
70254;BME280;57649;42.968;1.608;2023-03-14T01:51:56;96876.41;;;10.00;84.12
70254;BME280;57649;42.968;1.608;2023-03-14T01:54:40;96874.19;;;10.03;85.34
70254;BME280;57649;42.968;1.608;2023-03-14T01:59:35;96876.00;;;10.11;83.09
70254;BME280;57649;42.968;1.608;2023-03-14T02:02:02;96869.34;;;10.07;85.07
70254;BME280;57649;42.968;1.608;2023-03-14T02:04:33;96879.50;;;10.12;85.37
70254;BME280;57649;42.968;1.608;2023-03-14T02:07:10;96873.50;;;10.10;83.43
70254;BME280;57649;42.968;1.608;2023-03-14T02:09:39;96861.50;;;10.06;85.36
70254;BME280;57649;42.968;1.608;2023-03-14T02:12:08;96876.34;;;10.08;83.19
70254;BME280;57649;42.968;1.608;2023-03-14T02:14:35;96875.41;;;10.01;84.17
70254;BME280;57649;42.968;1.608;2023-03-14T02:17:03;96867.13;;;9.88;85.86
70254;BME280;57649;42.968;1.608;2023-03-14T02:22:11;96862.44;;;9.90;84.32
70254;BME280;57649;42.968;1.608;2023-03-14T02:24:45;96866.59;;;9.92;86.06
70254;BME280;57649;42.968;1.608;2023-03-14T02:27:16;96857.91;;;9.90;84.82
70254;BME280;57649;42.968;1.608;2023-03-14T02:29:52;96865.63;;;9.85;86.41
70254;BME280;57649;42.968;1.608;2023-03-14T02:32:21;96864.81;;;9.85;84.72
70254;BME280;57649;42.968;1.608;2023-03-14T02:34:52;96863.25;;;9.90;83.39
70254;BME280;57649;42.968;1.608;2023-03-14T02:37:20;96869.44;;;9.91;84.35
70254;BME280;57649;42.968;1.608;2023-03-14T02:39:48;96856.50;;;10.02;82.64
70254;BME280;57649;42.968;1.608;2023-03-14T02:42:17;96863.56;;;9.95;84.58
70254;BME280;57649;42.968;1.608;2023-03-14T02:44:52;96864.88;;;9.99;84.17
70254;BME280;57649;42.968;1.608;2023-03-14T02:47:20;96847.22;;;9.90;83.95
70254;BME280;57649;42.968;1.608;2023-03-14T02:49:47;96868.44;;;9.92;83.28
70254;BME280;57649;42.968;1.608;2023-03-14T02:52:13;96864.22;;;9.97;83.92
70254;BME280;57649;42.968;1.608;2023-03-14T02:54:38;96869.75;;;9.96;83.34
70254;BME280;57649;42.968;1.608;2023-03-14T02:57:04;96858.88;;;9.97;84.55
70254;BME280;57649;42.968;1.608;2023-03-14T02:59:29;96846.88;;;9.93;84.20
70254;BME280;57649;42.968;1.608;2023-03-14T03:01:55;96850.25;;;9.87;85.00
70254;BME280;57649;42.968;1.608;2023-03-14T03:04:20;96847.13;;;9.83;83.69
70254;BME280;57649;42.968;1.608;2023-03-14T03:06:45;96859.47;;;9.85;83.41
70254;BME280;57649;42.968;1.608;2023-03-14T03:09:11;96856.47;;;9.79;83.58
70254;BME280;57649;42.968;1.608;2023-03-14T03:11:36;96845.31;;;9.76;83.02
70254;BME280;57649;42.968;1.608;2023-03-14T03:14:02;96851.50;;;9.76;82.97
70254;BME280;57649;42.968;1.608;2023-03-14T03:16:27;96858.84;;;9.74;81.55
70254;BME280;57649;42.968;1.608;2023-03-14T03:18:52;96846.81;;;9.78;82.30
70254;BME280;57649;42.968;1.608;2023-03-14T03:21:18;96849.00;;;9.75;81.34
70254;BME280;57649;42.968;1.608;2023-03-14T03:23:44;96863.19;;;9.75;80.41
70254;BME280;57649;42.968;1.608;2023-03-14T03:26:09;96839.47;;;9.72;81.42
70254;BME280;57649;42.968;1.608;2023-03-14T03:28:35;96853.16;;;9.77;79.60
70254;BME280;57649;42.968;1.608;2023-03-14T03:31:09;96853.81;;;9.79;79.94
70254;BME280;57649;42.968;1.608;2023-03-14T03:33:36;96879.53;;;9.80;80.79
70254;BME280;57649;42.968;1.608;2023-03-14T03:36:01;96864.66;;;9.78;80.08
70254;BME280;57649;42.968;1.608;2023-03-14T03:38:26;96849.50;;;9.78;76.89
70254;BME280;57649;42.968;1.608;2023-03-14T03:40:52;96861.13;;;9.86;75.85
70254;BME280;57649;42.968;1.608;2023-03-14T03:43:17;96863.50;;;9.80;79.29
70254;BME280;57649;42.968;1.608;2023-03-14T03:45:43;96855.03;;;9.69;78.93
70254;BME280;57649;42.968;1.608;2023-03-14T03:48:08;96858.41;;;9.94;73.50
70254;BME280;57649;42.968;1.608;2023-03-14T03:50:34;96860.50;;;9.83;77.17
70254;BME280;57649;42.968;1.608;2023-03-14T03:52:59;96874.31;;;9.87;76.04
70254;BME280;57649;42.968;1.608;2023-03-14T03:55:25;96886.91;;;9.78;76.29
70254;BME280;57649;42.968;1.608;2023-03-14T03:57:51;96884.81;;;9.89;75.08
70254;BME280;57649;42.968;1.608;2023-03-14T04:00:17;96885.00;;;9.87;74.42
70254;BME280;57649;42.968;1.608;2023-03-14T04:02:42;96877.13;;;9.94;73.49
70254;BME280;57649;42.968;1.608;2023-03-14T04:05:08;96877.13;;;9.94;74.04
70254;BME280;57649;42.968;1.608;2023-03-14T04:07:34;96905.56;;;9.87;74.01
70254;BME280;57649;42.968;1.608;2023-03-14T04:09:59;96885.47;;;9.91;72.69
70254;BME280;57649;42.968;1.608;2023-03-14T04:12:24;96881.50;;;9.87;74.06
70254;BME280;57649;42.968;1.608;2023-03-14T04:14:50;96885.69;;;9.89;74.84
70254;BME280;57649;42.968;1.608;2023-03-14T04:17:15;96896.88;;;9.85;74.28
70254;BME280;57649;42.968;1.608;2023-03-14T04:19:40;96896.53;;;9.88;72.77
70254;BME280;57649;42.968;1.608;2023-03-14T04:22:07;96909.25;;;9.86;72.28
70254;BME280;57649;42.968;1.608;2023-03-14T04:24:32;96909.94;;;9.79;75.23
70254;BME280;57649;42.968;1.608;2023-03-14T04:26:58;96951.56;;;9.82;73.77
70254;BME280;57649;42.968;1.608;2023-03-14T04:29:23;96916.41;;;9.93;72.76
70254;BME280;57649;42.968;1.608;2023-03-14T04:31:48;96933.66;;;9.82;74.12
70254;BME280;57649;42.968;1.608;2023-03-14T04:34:14;96935.03;;;9.78;73.39
70254;BME280;57649;42.968;1.608;2023-03-14T04:36:39;96949.88;;;9.81;73.50
70254;BME280;57649;42.968;1.608;2023-03-14T04:39:05;96955.75;;;9.76;73.46
70254;BME280;57649;42.968;1.608;2023-03-14T04:41:30;96956.19;;;9.88;70.44
70254;BME280;57649;42.968;1.608;2023-03-14T04:43:56;96941.91;;;9.73;71.34
70254;BME280;57649;42.968;1.608;2023-03-14T04:46:21;96955.38;;;9.79;71.96
70254;BME280;57649;42.968;1.608;2023-03-14T04:48:46;96950.09;;;9.71;71.40
70254;BME280;57649;42.968;1.608;2023-03-14T04:51:12;96959.94;;;9.71;71.74
70254;BME280;57649;42.968;1.608;2023-03-14T04:53:37;96963.63;;;9.70;69.46
70254;BME280;57649;42.968;1.608;2023-03-14T04:56:03;96947.09;;;9.66;71.38
70254;BME280;57649;42.968;1.608;2023-03-14T04:58:29;96946.66;;;9.54;70.99
70254;BME280;57649;42.968;1.608;2023-03-14T05:00:54;96960.63;;;9.64;71.36
70254;BME280;57649;42.968;1.608;2023-03-14T05:03:19;96960.28;;;9.68;68.65
70254;BME280;57649;42.968;1.608;2023-03-14T05:05:45;96959.41;;;9.75;70.34
70254;BME280;57649;42.968;1.608;2023-03-14T05:08:11;96951.47;;;9.67;69.91
70254;BME280;57649;42.968;1.608;2023-03-14T05:10:37;96967.78;;;9.72;69.59
70254;BME280;57649;42.968;1.608;2023-03-14T05:13:03;96954.13;;;9.67;69.92
70254;BME280;57649;42.968;1.608;2023-03-14T05:15:28;96969.78;;;9.70;68.60
70254;BME280;57649;42.968;1.608;2023-03-14T05:17:53;96965.47;;;9.69;66.98
70254;BME280;57649;42.968;1.608;2023-03-14T05:20:20;96977.78;;;9.78;67.31
70254;BME280;57649;42.968;1.608;2023-03-14T05:22:46;96967.78;;;9.72;68.39
70254;BME280;57649;42.968;1.608;2023-03-14T05:25:11;96970.00;;;9.60;71.68
70254;BME280;57649;42.968;1.608;2023-03-14T05:27:37;96960.69;;;9.48;69.98
70254;BME280;57649;42.968;1.608;2023-03-14T05:30:03;96953.97;;;9.60;67.39
70254;BME280;57649;42.968;1.608;2023-03-14T05:32:29;96964.13;;;9.65;67.10
70254;BME280;57649;42.968;1.608;2023-03-14T05:34:54;96968.16;;;9.69;67.11
70254;BME280;57649;42.968;1.608;2023-03-14T05:37:23;96963.78;;;9.76;65.48
70254;BME280;57649;42.968;1.608;2023-03-14T05:39:48;96975.28;;;9.77;65.69
70254;BME280;57649;42.968;1.608;2023-03-14T05:42:14;96985.13;;;9.85;64.26
70254;BME280;57649;42.968;1.608;2023-03-14T05:44:39;96995.97;;;9.83;65.58
70254;BME280;57649;42.968;1.608;2023-03-14T05:47:05;96992.50;;;9.74;66.90
70254;BME280;57649;42.968;1.608;2023-03-14T05:49:30;97002.34;;;9.82;65.93
70254;BME280;57649;42.968;1.608;2023-03-14T05:51:55;97015.56;;;9.75;66.02
70254;BME280;57649;42.968;1.608;2023-03-14T05:54:21;97015.56;;;9.75;66.57
70254;BME280;57649;42.968;1.608;2023-03-14T05:56:46;97008.53;;;9.74;65.72
70254;BME280;57649;42.968;1.608;2023-03-14T05:59:11;97018.06;;;9.77;67.44
70254;BME280;57649;42.968;1.608;2023-03-14T06:01:38;97032.97;;;9.71;67.39
70254;BME280;57649;42.968;1.608;2023-03-14T06:04:04;97015.59;;;9.59;68.30
70254;BME280;57649;42.968;1.608;2023-03-14T06:06:29;97014.09;;;9.64;67.67
70254;BME280;57649;42.968;1.608;2023-03-14T06:08:55;97014.28;;;9.55;67.54
70254;BME280;57649;42.968;1.608;2023-03-14T06:11:20;97008.75;;;9.64;69.08
70254;BME280;57649;42.968;1.608;2023-03-14T06:13:45;97024.78;;;9.64;68.31
70254;BME280;57649;42.968;1.608;2023-03-14T06:16:11;97035.47;;;9.64;66.67
70254;BME280;57649;42.968;1.608;2023-03-14T06:18:36;97034.97;;;9.61;70.34
70254;BME280;57649;42.968;1.608;2023-03-14T06:21:02;97031.47;;;9.60;69.06
70254;BME280;57649;42.968;1.608;2023-03-14T06:23:27;97056.03;;;9.64;67.67
70254;BME280;57649;42.968;1.608;2023-03-14T06:25:55;97057.34;;;9.68;70.01
70254;BME280;57649;42.968;1.608;2023-03-14T06:28:21;97050.69;;;9.64;69.94
70254;BME280;57649;42.968;1.608;2023-03-14T06:30:46;97065.56;;;9.58;70.58
70254;BME280;57649;42.968;1.608;2023-03-14T06:33:11;97056.22;;;9.54;71.59
70254;BME280;57649;42.968;1.608;2023-03-14T06:35:37;97048.38;;;9.44;71.78
70254;BME280;57649;42.968;1.608;2023-03-14T06:38:02;97098.81;;;9.48;74.76
70254;BME280;57649;42.968;1.608;2023-03-14T06:40:27;97098.81;;;9.48;75.20
70254;BME280;57649;42.968;1.608;2023-03-14T06:42:53;97080.75;;;9.50;75.77
70254;BME280;57649;42.968;1.608;2023-03-14T06:45:18;97089.78;;;9.49;74.76
70254;BME280;57649;42.968;1.608;2023-03-14T06:47:44;97082.78;;;9.48;75.12
70254;BME280;57649;42.968;1.608;2023-03-14T06:50:10;97079.44;;;9.37;73.24
70254;BME280;57649;42.968;1.608;2023-03-14T06:52:35;97098.13;;;9.37;73.15
70254;BME280;57649;42.968;1.608;2023-03-14T06:55:01;97105.31;;;9.45;73.01
70254;BME280;57649;42.968;1.608;2023-03-14T06:57:26;97104.16;;;9.48;74.00
70254;BME280;57649;42.968;1.608;2023-03-14T06:59:52;97125.69;;;9.46;72.21
70254;BME280;57649;42.968;1.608;2023-03-14T07:02:17;97125.50;;;9.39;69.59
70254;BME280;57649;42.968;1.608;2023-03-14T07:04:42;97120.38;;;9.38;71.72
70254;BME280;57649;42.968;1.608;2023-03-14T07:07:08;97131.06;;;9.38;70.94
70254;BME280;57649;42.968;1.608;2023-03-14T07:09:34;97139.88;;;9.30;71.87
70254;BME280;57649;42.968;1.608;2023-03-14T07:12:00;97126.34;;;9.32;69.73
70254;BME280;57649;42.968;1.608;2023-03-14T07:14:25;97128.19;;;9.31;69.81
70254;BME280;57649;42.968;1.608;2023-03-14T07:16:51;97123.19;;;9.28;70.88
70254;BME280;57649;42.968;1.608;2023-03-14T07:19:16;97140.56;;;9.40;71.03
70254;BME280;57649;42.968;1.608;2023-03-14T07:21:42;97147.75;;;9.40;71.54
70254;BME280;57649;42.968;1.608;2023-03-14T07:24:07;97144.22;;;9.39;72.39
70254;BME280;57649;42.968;1.608;2023-03-14T07:26:33;97135.88;;;9.18;71.81
70254;BME280;57649;42.968;1.608;2023-03-14T07:28:58;97137.41;;;9.29;70.32
70254;BME280;57649;42.968;1.608;2023-03-14T07:31:24;97147.72;;;9.32;70.48
70254;BME280;57649;42.968;1.608;2023-03-14T07:33:49;97147.91;;;9.38;71.09
70254;BME280;57649;42.968;1.608;2023-03-14T07:36:15;97164.09;;;9.45;71.73
70254;BME280;57649;42.968;1.608;2023-03-14T07:38:41;97179.97;;;9.55;69.28
70254;BME280;57649;42.968;1.608;2023-03-14T07:41:07;97160.09;;;9.41;69.95
70254;BME280;57649;42.968;1.608;2023-03-14T07:43:32;97179.94;;;9.47;70.93
70254;BME280;57649;42.968;1.608;2023-03-14T07:45:58;97173.63;;;9.48;72.41
70254;BME280;57649;42.968;1.608;2023-03-14T07:48:23;97178.31;;;9.46;72.50
70254;BME280;57649;42.968;1.608;2023-03-14T07:50:53;97178.28;;;9.54;70.96
70254;BME280;57649;42.968;1.608;2023-03-14T07:53:20;97179.28;;;9.61;72.25
70254;BME280;57649;42.968;1.608;2023-03-14T07:55:46;97171.59;;;9.58;68.67
70254;BME280;57649;42.968;1.608;2023-03-14T07:58:12;97172.97;;;9.62;68.97
70254;BME280;57649;42.968;1.608;2023-03-14T08:00:37;97186.31;;;9.78;68.07
70254;BME280;57649;42.968;1.608;2023-03-14T08:03:03;97182.94;;;9.85;69.17
70254;BME280;57649;42.968;1.608;2023-03-14T08:05:28;97172.63;;;9.73;69.95
70254;BME280;57649;42.968;1.608;2023-03-14T08:07:54;97200.66;;;9.94;68.98
70254;BME280;57649;42.968;1.608;2023-03-14T08:10:19;97195.13;;;10.03;67.47
70254;BME280;57649;42.968;1.608;2023-03-14T08:12:49;97173.59;;;9.97;66.86
70254;BME280;57649;42.968;1.608;2023-03-14T08:15:15;97201.47;;;10.11;68.89
70254;BME280;57649;42.968;1.608;2023-03-14T08:17:41;97181.25;;;10.08;66.36
70254;BME280;57649;42.968;1.608;2023-03-14T08:20:06;97200.09;;;10.23;65.46
70254;BME280;57649;42.968;1.608;2023-03-14T08:22:33;97201.25;;;10.29;66.13
70254;BME280;57649;42.968;1.608;2023-03-14T08:24:59;97198.13;;;10.17;64.83
70254;BME280;57649;42.968;1.608;2023-03-14T08:27:24;97216.97;;;10.24;65.63
70254;BME280;57649;42.968;1.608;2023-03-14T08:29:49;97231.22;;;10.32;64.60
70254;BME280;57649;42.968;1.608;2023-03-14T08:32:15;97217.84;;;10.24;65.19
70254;BME280;57649;42.968;1.608;2023-03-14T08:34:40;97232.22;;;10.15;67.44
70254;BME280;57649;42.968;1.608;2023-03-14T08:37:05;97254.81;;;10.04;68.98
70254;BME280;57649;42.968;1.608;2023-03-14T08:39:31;97246.28;;;9.92;70.29
70254;BME280;57649;42.968;1.608;2023-03-14T08:41:56;97261.47;;;10.00;70.42
70254;BME280;57649;42.968;1.608;2023-03-14T08:44:22;97269.66;;;10.23;70.58
70254;BME280;57649;42.968;1.608;2023-03-14T08:46:47;97269.16;;;10.19;68.48
70254;BME280;57649;42.968;1.608;2023-03-14T08:49:13;97271.34;;;10.16;69.36
70254;BME280;57649;42.968;1.608;2023-03-14T08:51:39;97271.16;;;10.26;67.61
70254;BME280;57649;42.968;1.608;2023-03-14T08:54:04;97272.19;;;10.33;67.14
70254;BME280;57649;42.968;1.608;2023-03-14T08:56:30;97253.13;;;10.28;67.89
70254;BME280;57649;42.968;1.608;2023-03-14T08:58:55;97260.13;;;10.12;66.92
70254;BME280;57649;42.968;1.608;2023-03-14T09:01:21;97257.13;;;10.15;66.83
70254;BME280;57649;42.968;1.608;2023-03-14T09:03:49;97259.47;;;10.18;65.82
70254;BME280;57649;42.968;1.608;2023-03-14T09:06:14;97253.59;;;10.48;66.49
70254;BME280;57649;42.968;1.608;2023-03-14T09:08:43;97265.81;;;10.42;65.35
70254;BME280;57649;42.968;1.608;2023-03-14T09:11:08;97266.50;;;10.44;65.46
70254;BME280;57649;42.968;1.608;2023-03-14T09:13:34;97286.88;;;10.45;65.78
70254;BME280;57649;42.968;1.608;2023-03-14T09:15:59;97307.28;;;10.63;65.72
70254;BME280;57649;42.968;1.608;2023-03-14T09:18:25;97301.06;;;10.62;64.79
70254;BME280;57649;42.968;1.608;2023-03-14T09:20:50;97301.91;;;10.63;64.91
70254;BME280;57649;42.968;1.608;2023-03-14T09:23:15;97301.88;;;10.79;65.44
70254;BME280;57649;42.968;1.608;2023-03-14T09:25:41;97307.72;;;10.74;65.26
70254;BME280;57649;42.968;1.608;2023-03-14T09:28:06;97287.19;;;10.58;64.22
70254;BME280;57649;42.968;1.608;2023-03-14T09:30:32;97310.09;;;10.69;66.02
70254;BME280;57649;42.968;1.608;2023-03-14T09:32:58;97319.97;;;10.77;65.71
70254;BME280;57649;42.968;1.608;2023-03-14T09:35:24;97321.66;;;10.70;66.32
70254;BME280;57649;42.968;1.608;2023-03-14T09:37:49;97321.81;;;10.68;65.81
70254;BME280;57649;42.968;1.608;2023-03-14T09:40:16;97332.66;;;10.75;65.59
70254;BME280;57649;42.968;1.608;2023-03-14T09:42:42;97340.88;;;10.73;67.58
70254;BME280;57649;42.968;1.608;2023-03-14T09:45:27;97334.66;;;10.73;70.09
70254;BME280;57649;42.968;1.608;2023-03-14T09:47:55;97327.69;;;10.47;68.25
70254;BME280;57649;42.968;1.608;2023-03-14T09:50:22;97340.44;;;10.37;69.68
70254;BME280;57649;42.968;1.608;2023-03-14T09:53:00;97321.84;;;10.44;71.59
70254;BME280;57649;42.968;1.608;2023-03-14T09:55:27;97335.22;;;10.44;66.55
70254;BME280;57649;42.968;1.608;2023-03-14T09:58:05;97358.63;;;10.58;66.83
70254;BME280;57649;42.968;1.608;2023-03-14T10:00:35;97316.47;;;10.60;64.23
70254;BME280;57649;42.968;1.608;2023-03-14T10:03:33;97298.94;;;11.05;63.40
70254;BME280;57649;42.968;1.608;2023-03-14T10:05:59;97322.84;;;11.46;62.35
70254;BME280;57649;42.968;1.608;2023-03-14T10:08:25;97305.19;;;11.60;61.76
70254;BME280;57649;42.968;1.608;2023-03-14T10:10:50;97293.25;;;11.94;60.80
70254;BME280;57649;42.968;1.608;2023-03-14T10:16:00;97287.34;;;11.44;62.00
70254;BME280;57649;42.968;1.608;2023-03-14T10:18:29;97308.28;;;11.49;60.13
70254;BME280;57649;42.968;1.608;2023-03-14T10:21:17;97307.56;;;11.55;62.26
70254;BME280;57649;42.968;1.608;2023-03-14T10:23:45;97303.50;;;11.59;62.12
70254;BME280;57649;42.968;1.608;2023-03-14T10:31:10;97332.69;;;11.85;59.32
70254;BME280;57649;42.968;1.608;2023-03-14T10:33:37;97314.34;;;11.97;58.88
70254;BME280;57649;42.968;1.608;2023-03-14T10:36:06;97311.34;;;12.38;58.87
70254;BME280;57649;42.968;1.608;2023-03-14T10:38:41;97330.03;;;12.08;59.83
70254;BME280;57649;42.968;1.608;2023-03-14T10:41:19;97310.31;;;12.39;60.18
70254;BME280;57649;42.968;1.608;2023-03-14T10:43:57;97294.28;;;11.85;59.88
70254;BME280;57649;42.968;1.608;2023-03-14T10:46:25;97308.56;;;11.85;61.30
70254;BME280;57649;42.968;1.608;2023-03-14T10:48:51;97310.38;;;11.30;64.30
70254;BME280;57649;42.968;1.608;2023-03-14T10:51:25;97312.69;;;11.33;65.14
70254;BME280;57649;42.968;1.608;2023-03-14T10:56:24;97308.41;;;12.63;61.21
70254;BME280;57649;42.968;1.608;2023-03-14T10:58:53;97311.69;;;13.03;60.75
70254;BME280;57649;42.968;1.608;2023-03-14T11:01:48;97287.00;;;13.14;58.91
70254;BME280;57649;42.968;1.608;2023-03-14T11:04:44;97293.91;;;13.53;60.18
70254;BME280;57649;42.968;1.608;2023-03-14T11:07:20;97310.88;;;13.90;58.62
70254;BME280;57649;42.968;1.608;2023-03-14T11:15:09;97284.78;;;13.69;56.41
70254;BME280;57649;42.968;1.608;2023-03-14T11:20:53;97276.50;;;14.14;56.01
70254;BME280;57649;42.968;1.608;2023-03-14T11:28:49;97260.28;;;13.27;56.23
70254;BME280;57649;42.968;1.608;2023-03-14T11:31:26;97277.50;;;13.63;55.14
70254;BME280;57649;42.968;1.608;2023-03-14T11:34:10;97261.09;;;13.58;55.96
70254;BME280;57649;42.968;1.608;2023-03-14T11:37:00;97284.72;;;13.84;55.59
70254;BME280;57649;42.968;1.608;2023-03-14T11:39:41;97294.22;;;14.01;57.25
70254;BME280;57649;42.968;1.608;2023-03-14T11:42:14;97298.19;;;13.84;57.85
70254;BME280;57649;42.968;1.608;2023-03-14T11:44:44;97309.38;;;13.66;56.52
70254;BME280;57649;42.968;1.608;2023-03-14T11:49:55;97302.13;;;13.45;56.47
70254;BME280;57649;42.968;1.608;2023-03-14T11:52:30;97321.97;;;12.69;57.90
70254;BME280;57649;42.968;1.608;2023-03-14T11:57:37;97350.38;;;11.71;66.62
70254;BME280;57649;42.968;1.608;2023-03-14T12:00:22;97383.66;;;10.98;70.38
70254;BME280;57649;42.968;1.608;2023-03-14T12:10:56;97401.47;;;10.58;84.14
70254;BME280;57649;42.968;1.608;2023-03-14T12:13:28;97393.25;;;10.18;86.38
70254;BME280;57649;42.968;1.608;2023-03-14T12:16:00;97417.13;;;9.53;91.16
70254;BME280;57649;42.968;1.608;2023-03-14T12:21:00;97452.22;;;8.17;100.00
70254;BME280;57649;42.968;1.608;2023-03-14T12:23:28;97430.47;;;7.76;100.00
70254;BME280;57649;42.968;1.608;2023-03-14T12:28:38;97447.88;;;7.43;100.00
70254;BME280;57649;42.968;1.608;2023-03-14T12:34:25;97450.63;;;7.61;100.00
70254;BME280;57649;42.968;1.608;2023-03-14T12:36:55;97442.34;;;7.82;100.00
70254;BME280;57649;42.968;1.608;2023-03-14T12:44:48;97411.69;;;8.14;99.40
70254;BME280;57649;42.968;1.608;2023-03-14T12:49:44;97394.06;;;9.09;100.00
70254;BME280;57649;42.968;1.608;2023-03-14T12:52:21;97383.19;;;9.45;100.00
70254;BME280;57649;42.968;1.608;2023-03-14T12:57:42;97358.75;;;10.07;92.72
70254;BME280;57649;42.968;1.608;2023-03-14T13:00:21;97339.41;;;10.46;95.04
70254;BME280;57649;42.968;1.608;2023-03-14T13:02:47;97343.59;;;11.13;94.70
70254;BME280;57649;42.968;1.608;2023-03-14T13:05:21;97328.78;;;11.33;92.92
70254;BME280;57649;42.968;1.608;2023-03-14T13:10:22;97306.47;;;11.72;86.63
70254;BME280;57649;42.968;1.608;2023-03-14T13:13:02;97302.50;;;12.15;93.80
70254;BME280;57649;42.968;1.608;2023-03-14T13:18:02;97291.59;;;11.93;80.59
70254;BME280;57649;42.968;1.608;2023-03-14T13:20:31;97296.72;;;11.71;78.09
70254;BME280;57649;42.968;1.608;2023-03-14T13:22:57;97287.16;;;11.46;76.60
70254;BME280;57649;42.968;1.608;2023-03-14T13:25:23;97281.72;;;11.62;75.19
70254;BME280;57649;42.968;1.608;2023-03-14T13:27:52;97288.47;;;12.04;73.48
70254;BME280;57649;42.968;1.608;2023-03-14T13:30:21;97282.03;;;12.13;71.35
70254;BME280;57649;42.968;1.608;2023-03-14T13:32:48;97269.97;;;12.47;74.12
70254;BME280;57649;42.968;1.608;2023-03-14T13:35:38;97275.91;;;12.58;72.11
70254;BME280;57649;42.968;1.608;2023-03-14T13:38:04;97292.38;;;12.55;69.30
70254;BME280;57649;42.968;1.608;2023-03-14T13:40:32;97283.97;;;12.20;67.61
70254;BME280;57649;42.968;1.608;2023-03-14T13:43:20;97289.31;;;12.43;69.94
70254;BME280;57649;42.968;1.608;2023-03-14T13:45:51;97298.94;;;12.14;67.49
70254;BME280;57649;42.968;1.608;2023-03-14T13:48:18;97273.16;;;11.90;66.97
70254;BME280;57649;42.968;1.608;2023-03-14T13:51:05;97264.56;;;11.71;68.66
70254;BME280;57649;42.968;1.608;2023-03-14T13:53:41;97270.19;;;11.53;64.90
70254;BME280;57649;42.968;1.608;2023-03-14T13:56:10;97273.72;;;11.54;67.66
70254;BME280;57649;42.968;1.608;2023-03-14T13:58:38;97284.03;;;11.65;71.59
70254;BME280;57649;42.968;1.608;2023-03-14T14:01:27;97281.31;;;11.42;67.25
70254;BME280;57649;42.968;1.608;2023-03-14T14:03:53;97292.19;;;10.62;70.65
70254;BME280;57649;42.968;1.608;2023-03-14T14:08:57;97353.13;;;10.18;81.88
70254;BME280;57649;42.968;1.608;2023-03-14T14:11:37;97331.00;;;10.16;80.20
70254;BME280;57649;42.968;1.608;2023-03-14T14:14:10;97349.25;;;9.96;84.11
70254;BME280;57649;42.968;1.608;2023-03-14T14:16:37;97341.72;;;10.08;81.05
70254;BME280;57649;42.968;1.608;2023-03-14T14:19:02;97335.72;;;10.31;80.72